Time;durP1;ratioP1;P1;durP2;ratioP2;P2;SDS_P1;SDS_P2;PMS_P1;PMS_P2;Temp;Humidity;BMP_temperature;BMP_pressure;BME280_temperature;BME280_humidity;BME280_pressure;Samples;Min_cycle;Max_cycle;Signal;HPM_P1;HPM_P2
2022/10/10 00:00:55;;;;;;;39.97;17.30;;;7.30;99.90;;;;;;5040263;28;20087;-66
2022/10/10 00:03:21;;;;;;;38.30;17.02;;;7.30;99.90;;;;;;5034072;28;20447;-66
2022/10/10 00:05:46;;;;;;;39.53;17.02;;;7.30;99.90;;;;;;5043493;28;20038;-66
2022/10/10 00:08:12;;;;;;;38.40;17.13;;;7.30;99.90;;;;;;5063360;28;20048;-66
2022/10/10 00:10:38;;;;;;;39.70;16.92;;;7.30;99.90;;;;;;5039163;28;20453;-66
2022/10/10 00:13:04;;;;;;;39.75;17.52;;;7.30;99.90;;;;;;5044089;28;20059;-66
2022/10/10 00:15:31;;;;;;;39.47;17.35;;;7.20;99.90;;;;;;5071938;28;20062;-66
2022/10/10 00:17:56;;;;;;;37.63;17.50;;;7.20;99.90;;;;;;5048760;28;20465;-66
2022/10/10 00:20:22;;;;;;;38.42;17.08;;;7.20;99.90;;;;;;5031359;28;20069;-66
2022/10/10 00:22:48;;;;;;;41.75;16.80;;;7.20;99.90;;;;;;5035551;28;20449;-66
2022/10/10 00:25:14;;;;;;;43.60;17.73;;;7.20;99.90;;;;;;5035867;28;20049;-66
2022/10/10 00:27:40;;;;;;;39.80;17.67;;;7.30;99.90;;;;;;5041882;28;20029;-66
2022/10/10 00:30:07;;;;;;;41.33;17.30;;;7.20;99.90;;;;;;5040943;28;20399;-66
2022/10/10 00:32:33;;;;;;;38.97;16.70;;;7.20;99.90;;;;;;5032199;28;20041;-66
2022/10/10 00:34:59;;;;;;;40.13;17.73;;;7.20;99.90;;;;;;5035823;28;20454;-66
2022/10/10 00:37:25;;;;;;;38.67;17.65;;;7.20;99.90;;;;;;5043259;28;20061;-66
2022/10/10 00:39:50;;;;;;;38.90;17.50;;;7.20;99.90;;;;;;5038797;28;20037;-66
2022/10/10 00:42:17;;;;;;;39.40;17.60;;;7.20;99.90;;;;;;5033903;28;20111;-66
2022/10/10 00:44:44;;;;;;;41.35;18.38;;;7.20;99.90;;;;;;5036829;28;20041;-66
2022/10/10 00:47:10;;;;;;;39.80;17.77;;;7.20;99.90;;;;;;5035688;28;20106;-66
2022/10/10 00:49:40;;;;;;;35.78;17.67;;;7.20;99.90;;;;;;5071898;28;20037;-66
2022/10/10 00:52:08;;;;;;;36.95;16.92;;;7.20;99.90;;;;;;5046746;28;20037;-66
2022/10/10 00:54:35;;;;;;;46.38;18.20;;;7.20;99.90;;;;;;5044971;28;20453;-66
2022/10/10 00:57:09;;;;;;;39.22;18.23;;;7.20;99.90;;;;;;5039122;28;20099;-66
2022/10/10 00:59:37;;;;;;;36.58;16.88;;;7.20;99.90;;;;;;5044023;28;20041;-66
2022/10/10 01:02:03;;;;;;;40.97;18.05;;;7.10;99.90;;;;;;5068591;28;20041;-66
2022/10/10 01:04:37;;;;;;;41.60;17.50;;;7.10;99.90;;;;;;5038963;28;20120;-66
2022/10/10 01:07:11;;;;;;;41.38;17.63;;;7.10;99.90;;;;;;5068249;28;20067;-65
2022/10/10 01:09:39;;;;;;;41.90;18.25;;;7.10;99.90;;;;;;5044915;28;20187;-66
2022/10/10 01:12:33;;;;;;;43.97;18.88;;;7.10;99.90;;;;;;5070038;28;20419;-65
2022/10/10 01:15:02;;;;;;;37.47;18.00;;;7.10;99.90;;;;;;5071264;28;20506;-66
2022/10/10 01:17:49;;;;;;;42.53;17.65;;;7.10;99.90;;;;;;5066431;28;20049;-66
2022/10/10 01:20:36;;;;;;;40.40;16.98;;;7.10;99.90;;;;;;5035507;28;20083;-66
2022/10/10 01:23:46;;;;;;;35.80;17.05;;;7.10;99.90;;;;;;5068385;28;20400;-66
2022/10/10 01:26:32;;;;;;;38.22;17.65;;;7.00;99.90;;;;;;4986795;28;20037;-66
2022/10/10 01:29:21;;;;;;;40.00;17.55;;;7.00;99.90;;;;;;5018407;28;20048;-66
2022/10/10 01:31:50;;;;;;;38.70;17.10;;;7.10;99.90;;;;;;5049807;28;20059;-67
2022/10/10 01:34:26;;;;;;;44.47;17.90;;;7.10;99.90;;;;;;5061995;28;20088;-66
2022/10/10 01:37:03;;;;;;;36.40;17.17;;;7.00;99.90;;;;;;5066534;28;20040;-66
2022/10/10 01:39:51;;;;;;;39.05;16.98;;;7.00;99.90;;;;;;5033110;28;20069;-66
2022/10/10 01:42:29;;;;;;;42.47;17.90;;;7.00;99.90;;;;;;5030368;28;20067;-66
2022/10/10 01:44:55;;;;;;;48.97;16.98;;;6.90;99.90;;;;;;5042356;28;20365;-66
2022/10/10 01:47:21;;;;;;;47.15;18.50;;;6.90;99.90;;;;;;5043392;28;20051;-66
2022/10/10 01:49:50;;;;;;;43.83;18.00;;;6.90;99.90;;;;;;5039319;28;20372;-66
2022/10/10 01:52:34;;;;;;;38.95;17.30;;;6.90;99.90;;;;;;5071664;28;20072;-66
2022/10/10 01:55:14;;;;;;;41.45;17.58;;;6.90;99.90;;;;;;5040932;28;20037;-66
2022/10/10 01:58:29;;;;;;;42.72;18.33;;;6.90;99.90;;;;;;5070153;28;20132;-66
2022/10/10 02:01:02;;;;;;;45.67;17.58;;;6.90;99.90;;;;;;5033159;28;20045;-66
2022/10/10 02:03:37;;;;;;;40.22;18.05;;;6.80;99.90;;;;;;5050497;28;20064;-66
2022/10/10 02:06:11;;;;;;;39.15;17.17;;;6.80;99.90;;;;;;5034522;28;20561;-66
2022/10/10 02:08:55;;;;;;;42.42;17.55;;;6.80;99.90;;;;;;5075568;28;20150;-66
2022/10/10 02:11:22;;;;;;;44.92;18.48;;;6.80;99.90;;;;;;5034604;28;20609;-66
2022/10/10 02:13:54;;;;;;;44.65;18.27;;;6.80;99.90;;;;;;5063077;28;20040;-66
2022/10/10 02:16:25;;;;;;;;;;;6.80;99.90;;;;;;5039528;28;20037;-66
2022/10/10 02:18:52;;;;;;;40.95;17.92;;;6.80;99.90;;;;;;5041182;28;19921;-66
2022/10/10 02:21:18;;;;;;;46.28;17.33;;;6.70;99.90;;;;;;5046245;28;20041;-66
2022/10/10 02:23:47;;;;;;;41.33;18.65;;;6.70;99.90;;;;;;5037818;28;20033;-66
2022/10/10 02:26:15;;;;;;;51.17;18.98;;;6.70;99.90;;;;;;5033771;28;20056;-66
2022/10/10 02:28:57;;;;;;;39.42;18.30;;;6.70;99.90;;;;;;5040254;28;20499;-66
2022/10/10 02:31:31;;;;;;;46.17;17.70;;;6.70;99.90;;;;;;5045629;28;20131;-66
2022/10/10 02:34:11;;;;;;;41.63;17.33;;;6.60;99.90;;;;;;5036297;28;20697;-66
2022/10/10 02:36:39;;;;;;;39.17;17.77;;;6.60;99.90;;;;;;5072446;28;20037;-66
2022/10/10 02:39:05;;;;;;;41.17;17.77;;;6.60;99.90;;;;;;5040588;28;20072;-66
2022/10/10 02:41:34;;;;;;;45.17;18.92;;;6.60;99.90;;;;;;5045919;28;20037;-66
2022/10/10 02:43:59;;;;;;;42.42;18.20;;;6.60;99.90;;;;;;5035304;28;20037;-66
2022/10/10 02:46:25;;;;;;;40.05;16.73;;;6.60;99.90;;;;;;5032276;28;20042;-67
2022/10/10 02:48:51;;;;;;;44.95;18.33;;;6.60;99.90;;;;;;5067487;28;20548;-67
2022/10/10 02:51:17;;;;;;;42.13;17.67;;;6.60;99.90;;;;;;5071828;28;20042;-66
2022/10/10 02:53:43;;;;;;;37.53;16.70;;;6.60;99.90;;;;;;5069133;28;20473;-66
2022/10/10 02:56:09;;;;;;;36.20;16.42;;;6.60;99.90;;;;;;5046137;28;20040;-66
2022/10/10 02:58:35;;;;;;;42.30;17.73;;;6.60;99.90;;;;;;5032978;28;20033;-66
2022/10/10 03:01:00;;;;;;;47.35;18.17;;;6.50;99.90;;;;;;5038595;28;20544;-65
2022/10/10 03:03:26;;;;;;;44.85;17.70;;;6.60;99.90;;;;;;5046708;28;20043;-66
2022/10/10 03:05:52;;;;;;;38.40;17.67;;;6.60;99.90;;;;;;5035401;28;20124;-65
2022/10/10 03:08:17;;;;;;;37.80;17.08;;;6.60;99.90;;;;;;5033230;28;20069;-66
2022/10/10 03:10:57;;;;;;;47.50;17.90;;;6.60;99.90;;;;;;5036948;28;20064;-66
2022/10/10 03:13:23;;;;;;;44.78;17.45;;;6.60;99.90;;;;;;5034937;28;20079;-66
2022/10/10 03:15:49;;;;;;;44.30;17.63;;;6.60;99.90;;;;;;5033731;28;20065;-66
2022/10/10 03:18:14;;;;;;;42.30;18.05;;;6.60;99.90;;;;;;5033180;28;20103;-66
2022/10/10 03:20:40;;;;;;;39.08;16.60;;;6.60;99.90;;;;;;5037136;28;20125;-66
2022/10/10 03:23:05;;;;;;;43.42;17.13;;;6.60;99.90;;;;;;5036414;28;20491;-66
2022/10/10 03:25:33;;;;;;;42.53;18.30;;;6.60;99.90;;;;;;5038467;28;20538;-66
2022/10/10 03:27:59;;;;;;;40.17;17.45;;;6.60;99.90;;;;;;5033327;28;20373;-65
2022/10/10 03:30:24;;;;;;;40.13;17.05;;;6.60;99.90;;;;;;5039493;28;20064;-66
2022/10/10 03:32:50;;;;;;;40.85;17.27;;;6.50;99.90;;;;;;5035914;28;20041;-66
2022/10/10 03:35:16;;;;;;;44.85;17.77;;;6.60;99.90;;;;;;5045108;28;20120;-66
2022/10/10 03:37:41;;;;;;;38.92;17.00;;;6.70;99.90;;;;;;5034151;28;20488;-66
2022/10/10 03:40:07;;;;;;;47.10;17.90;;;6.60;99.90;;;;;;5033102;28;20043;-66
2022/10/10 03:42:33;;;;;;;44.20;17.70;;;6.60;99.90;;;;;;5035810;28;20064;-66
2022/10/10 03:44:58;;;;;;;46.55;18.30;;;6.60;99.90;;;;;;5035512;28;20068;-66
2022/10/10 03:47:24;;;;;;;38.22;17.38;;;6.60;99.90;;;;;;5035432;28;20132;-66
2022/10/10 03:49:49;;;;;;;40.08;16.98;;;6.60;99.90;;;;;;5034476;28;20393;-66
2022/10/10 03:52:15;;;;;;;38.33;17.42;;;6.60;99.90;;;;;;5032255;28;20351;-66
2022/10/10 03:54:40;;;;;;;39.30;16.92;;;6.60;99.90;;;;;;5036090;28;20037;-66
2022/10/10 03:57:06;;;;;;;40.10;17.33;;;6.60;99.90;;;;;;5071835;28;20079;-66
2022/10/10 03:59:32;;;;;;;38.00;17.17;;;6.60;99.90;;;;;;5040713;28;20051;-66
2022/10/10 04:01:57;;;;;;;38.95;17.15;;;6.60;99.90;;;;;;5046967;28;20530;-66
2022/10/10 04:04:23;;;;;;;47.15;17.00;;;6.60;99.90;;;;;;5042418;28;20033;-66
2022/10/10 04:06:49;;;;;;;48.80;18.05;;;6.60;99.90;;;;;;5041951;28;20591;-67
2022/10/10 04:09:14;;;;;;;48.55;18.52;;;6.60;99.90;;;;;;5041075;28;20032;-66
2022/10/10 04:11:40;;;;;;;52.35;18.58;;;6.60;99.90;;;;;;5055648;28;20504;-66
2022/10/10 04:14:05;;;;;;;42.22;16.95;;;6.50;99.90;;;;;;5039079;28;20163;-66
2022/10/10 04:16:31;;;;;;;41.30;17.83;;;6.60;99.90;;;;;;5040282;28;20041;-66
2022/10/10 04:18:57;;;;;;;42.70;18.02;;;6.60;99.90;;;;;;5043475;28;20056;-66
2022/10/10 04:21:22;;;;;;;41.78;17.65;;;6.50;99.90;;;;;;5038739;28;20127;-66
2022/10/10 04:23:48;;;;;;;46.47;18.13;;;6.60;99.90;;;;;;5032707;28;20041;-66
2022/10/10 04:26:13;;;;;;;39.30;18.33;;;6.60;99.90;;;;;;5037935;28;20045;-66
2022/10/10 04:28:39;;;;;;;47.65;19.08;;;6.50;99.90;;;;;;5033335;28;20045;-66
2022/10/10 04:31:06;;;;;;;41.40;18.25;;;6.60;99.90;;;;;;5038935;28;20384;-66
2022/10/10 04:33:31;;;;;;;47.10;18.77;;;6.50;99.90;;;;;;5036171;28;20638;-66
2022/10/10 04:35:57;;;;;;;45.17;17.65;;;6.50;99.90;;;;;;5066247;28;20029;-66
2022/10/10 04:38:22;;;;;;;42.92;18.63;;;6.50;99.90;;;;;;5039710;28;20479;-66
2022/10/10 04:40:49;;;;;;;41.42;17.95;;;6.50;99.90;;;;;;5022087;28;20397;-66
2022/10/10 04:43:15;;;;;;;45.53;18.63;;;6.50;99.90;;;;;;5042715;28;20127;-66
2022/10/10 04:45:41;;;;;;;46.58;19.20;;;6.50;99.90;;;;;;5074794;28;20040;-66
2022/10/10 04:48:07;;;;;;;43.28;17.80;;;6.50;99.90;;;;;;5043549;28;20045;-65
2022/10/10 04:50:32;;;;;;;46.65;18.75;;;6.50;99.90;;;;;;5037460;28;20041;-66
2022/10/10 04:52:58;;;;;;;47.30;18.55;;;6.40;99.90;;;;;;5037043;28;20412;-66
2022/10/10 04:55:23;;;;;;;42.65;18.45;;;6.50;99.90;;;;;;5040083;28;20037;-66
2022/10/10 04:57:49;;;;;;;42.83;19.05;;;6.50;99.90;;;;;;5039375;28;20075;-66
2022/10/10 05:00:14;;;;;;;43.95;19.23;;;6.50;99.90;;;;;;5039056;28;20033;-67
2022/10/10 05:02:40;;;;;;;47.03;19.58;;;6.50;99.90;;;;;;5036959;28;20071;-66
2022/10/10 05:05:06;;;;;;;48.90;18.67;;;6.50;99.90;;;;;;5073933;28;20123;-66
2022/10/10 05:07:32;;;;;;;39.97;18.35;;;6.40;99.90;;;;;;5040794;28;20037;-66
2022/10/10 05:09:58;;;;;;;44.63;19.20;;;6.50;99.90;;;;;;5038639;28;20484;-66
2022/10/10 05:12:23;;;;;;;48.60;19.60;;;6.50;99.90;;;;;;5066391;28;20494;-66
2022/10/10 05:14:49;;;;;;;46.88;19.67;;;6.40;99.90;;;;;;5040823;28;20041;-66
2022/10/10 05:17:15;;;;;;;50.78;19.77;;;6.50;99.90;;;;;;5044157;28;20102;-67
2022/10/10 05:19:40;;;;;;;41.90;19.40;;;6.40;99.90;;;;;;5039446;28;20472;-66
2022/10/10 05:22:06;;;;;;;52.33;20.48;;;6.50;99.90;;;;;;5041184;28;20044;-66
2022/10/10 05:24:31;;;;;;;49.00;20.38;;;6.40;99.90;;;;;;5040454;28;20471;-66
2022/10/10 05:26:58;;;;;;;48.90;19.23;;;6.50;99.90;;;;;;5068240;28;20033;-66
2022/10/10 05:29:23;;;;;;;52.38;19.55;;;6.50;99.90;;;;;;5044032;28;20037;-66
2022/10/10 05:31:49;;;;;;;50.58;19.75;;;6.40;99.90;;;;;;5039300;28;20043;-67
2022/10/10 05:34:15;;;;;;;48.35;20.02;;;6.40;99.90;;;;;;5026579;28;20494;-67
2022/10/10 05:36:41;;;;;;;48.63;19.90;;;6.40;99.90;;;;;;5041251;28;20571;-67
2022/10/10 05:39:07;;;;;;;49.45;19.45;;;6.50;99.90;;;;;;5041111;28;20469;-67
2022/10/10 05:41:32;;;;;;;47.38;20.17;;;6.40;99.90;;;;;;5037626;28;20175;-67
2022/10/10 05:43:58;;;;;;;54.10;21.15;;;6.40;99.90;;;;;;5037972;28;20124;-65
2022/10/10 05:46:26;;;;;;;50.38;19.55;;;6.40;99.90;;;;;;5043365;28;20041;-67
2022/10/10 05:48:52;;;;;;;53.42;20.95;;;6.40;99.90;;;;;;5042356;28;20392;-67
2022/10/10 05:51:18;;;;;;;50.40;20.55;;;6.40;99.90;;;;;;5041080;28;20033;-66
2022/10/10 05:53:43;;;;;;;52.28;20.85;;;6.40;99.90;;;;;;5038515;28;20041;-66
2022/10/10 05:56:10;;;;;;;50.72;20.50;;;6.40;99.90;;;;;;5036968;28;20076;-67
2022/10/10 05:58:36;;;;;;;49.50;20.52;;;6.40;99.90;;;;;;5037590;28;20091;-67
2022/10/10 06:01:04;;;;;;;45.83;21.38;;;6.40;99.90;;;;;;5053585;28;20029;-67
2022/10/10 06:03:30;;;;;;;51.90;20.55;;;6.40;99.90;;;;;;5042873;28;20049;-67
2022/10/10 06:05:56;;;;;;;46.63;20.90;;;6.40;99.90;;;;;;5043243;28;20475;-66
2022/10/10 06:08:21;;;;;;;51.88;20.77;;;6.40;99.90;;;;;;5038864;28;20037;-67
2022/10/10 06:10:47;;;;;;;49.97;20.15;;;6.40;99.90;;;;;;5072859;28;20484;-67
2022/10/10 06:13:16;;;;;;;53.08;21.25;;;6.40;99.90;;;;;;5038174;28;20120;-67
2022/10/10 06:15:42;;;;;;;53.20;20.90;;;6.50;99.90;;;;;;5034049;28;20084;-66
2022/10/10 06:18:08;;;;;;;57.58;21.30;;;6.50;99.90;;;;;;5049373;28;20041;-67
2022/10/10 06:20:35;;;;;;;56.63;21.17;;;6.50;99.90;;;;;;5047305;28;20066;-66
2022/10/10 06:23:01;;;;;;;52.60;21.45;;;6.50;99.90;;;;;;5046800;28;20048;-66
2022/10/10 06:25:26;;;;;;;54.10;21.73;;;6.60;99.90;;;;;;5042993;28;20395;-67
2022/10/10 06:27:52;;;;;;;54.65;21.55;;;6.60;99.90;;;;;;5045683;28;20253;-67
2022/10/10 06:30:17;;;;;;;53.63;20.40;;;6.70;99.90;;;;;;5048093;28;20048;-66
2022/10/10 06:32:43;;;;;;;50.95;20.98;;;6.70;99.90;;;;;;5047337;28;20098;-66
2022/10/10 06:35:09;;;;;;;54.63;21.63;;;6.70;99.90;;;;;;5051128;28;20392;-66
2022/10/10 06:37:35;;;;;;;52.85;20.98;;;6.80;99.90;;;;;;5048074;28;20257;-67
2022/10/10 06:40:00;;;;;;;55.92;21.20;;;6.80;99.90;;;;;;5045248;28;20025;-66
2022/10/10 06:42:26;;;;;;;55.38;21.98;;;6.90;99.90;;;;;;5073919;28;20495;-66
2022/10/10 06:44:51;;;;;;;56.08;21.58;;;6.90;99.90;;;;;;5080394;28;20040;-66
2022/10/10 06:47:17;;;;;;;55.75;22.15;;;7.00;99.90;;;;;;5039820;28;20037;-67
2022/10/10 06:49:42;;;;;;;47.25;20.63;;;7.00;99.90;;;;;;5046512;28;20037;-67
2022/10/10 06:52:08;;;;;;;55.55;22.02;;;7.10;99.90;;;;;;5051355;28;20071;-67
2022/10/10 06:54:35;;;;;;;54.72;22.08;;;7.20;99.90;;;;;;5051678;28;20029;-67
2022/10/10 06:57:00;;;;;;;54.40;21.55;;;7.30;99.90;;;;;;5050624;28;20044;-66
2022/10/10 06:59:26;;;;;;;51.78;20.83;;;7.30;99.90;;;;;;5051084;28;20480;-67
2022/10/10 07:01:52;;;;;;;55.08;21.80;;;7.40;99.90;;;;;;5049448;28;20056;-67
2022/10/10 07:04:17;;;;;;;59.80;21.98;;;7.40;99.90;;;;;;5051689;28;20045;-67
2022/10/10 07:06:43;;;;;;;48.55;21.38;;;7.50;99.90;;;;;;5049700;28;20127;-67
2022/10/10 07:09:08;;;;;;;51.90;22.08;;;7.60;99.90;;;;;;5051148;28;20083;-67
2022/10/10 07:11:34;;;;;;;55.75;21.05;;;7.70;99.90;;;;;;5049634;28;20037;-67
2022/10/10 07:14:00;;;;;;;54.88;21.80;;;7.70;99.90;;;;;;5051273;28;20037;-67
2022/10/10 07:16:25;;;;;;;56.42;20.92;;;7.80;99.90;;;;;;5034261;28;20060;-66
2022/10/10 07:18:51;;;;;;;52.83;21.95;;;7.80;99.90;;;;;;5054573;28;20102;-66
2022/10/10 07:21:17;;;;;;;55.42;22.30;;;7.90;99.90;;;;;;5050909;28;21254;-66
2022/10/10 07:23:42;;;;;;;56.10;22.83;;;7.90;99.90;;;;;;5049943;28;20391;-67
2022/10/10 07:26:12;;;;;;;55.35;20.58;;;8.00;99.90;;;;;;5051455;28;20056;-66
2022/10/10 07:28:38;;;;;;;54.85;21.35;;;8.00;99.90;;;;;;5050060;28;20053;-66
2022/10/10 07:31:06;;;;;;;57.35;22.55;;;8.10;99.90;;;;;;5081973;28;20056;-66
2022/10/10 07:33:40;;;;;;;53.95;21.80;;;8.20;99.90;;;;;;5051085;28;20041;-67
2022/10/10 07:36:06;;;;;;;60.33;21.65;;;8.20;99.90;;;;;;5050566;28;20048;-66
2022/10/10 07:38:33;;;;;;;51.08;21.30;;;8.30;99.90;;;;;;5067610;28;20078;-66
2022/10/10 07:40:58;;;;;;;57.67;21.70;;;8.40;99.90;;;;;;5051601;28;20131;-67
2022/10/10 07:43:24;;;;;;;58.85;22.42;;;8.50;99.90;;;;;;5048397;28;20115;-66
2022/10/10 07:45:49;;;;;;;61.13;23.40;;;8.60;99.90;;;;;;5049782;28;20052;-66
2022/10/10 07:48:15;;;;;;;52.65;22.13;;;8.70;99.90;;;;;;5051387;28;20045;-67
2022/10/10 07:50:42;;;;;;;61.08;21.63;;;8.80;99.90;;;;;;5051882;28;20176;-66
2022/10/10 07:53:09;;;;;;;55.83;23.25;;;8.80;99.90;;;;;;5035680;28;20046;-67
2022/10/10 07:55:41;;;;;;;69.45;23.83;;;9.00;99.90;;;;;;5035576;28;20037;-67
2022/10/10 07:58:06;;;;;;;60.35;23.80;;;9.10;99.90;;;;;;5050155;28;20043;-66
2022/10/10 08:00:34;;;;;;;59.30;22.50;;;9.30;99.90;;;;;;5046724;28;20041;-67
2022/10/10 08:03:00;;;;;;;65.03;23.55;;;9.50;99.90;;;;;;5047540;28;20570;-67
2022/10/10 08:05:26;;;;;;;61.10;23.52;;;9.60;99.90;;;;;;5050828;28;20084;-66
2022/10/10 08:07:51;;;;;;;59.00;23.48;;;9.70;99.90;;;;;;5049433;28;20120;-67
2022/10/10 08:10:17;;;;;;;77.18;23.90;;;9.80;99.90;;;;;;5049452;28;20080;-66
2022/10/10 08:12:43;;;;;;;63.97;23.50;;;9.90;99.90;;;;;;5045364;28;20542;-67
2022/10/10 08:15:09;;;;;;;61.38;24.02;;;10.00;99.90;;;;;;5048400;28;20111;-65
2022/10/10 08:17:35;;;;;;;63.22;24.00;;;10.20;99.90;;;;;;5049386;28;20044;-66
2022/10/10 08:20:01;;;;;;;69.75;24.58;;;10.30;99.90;;;;;;5048716;28;20037;-65
2022/10/10 08:22:27;;;;;;;68.43;24.40;;;10.40;99.90;;;;;;5049343;28;20431;-64
2022/10/10 08:24:52;;;;;;;67.93;25.15;;;10.50;99.90;;;;;;5048732;28;20036;-65
2022/10/10 08:27:19;;;;;;;71.85;24.77;;;10.60;99.90;;;;;;5048965;28;20232;-65
2022/10/10 08:29:45;;;;;;;70.13;25.60;;;10.80;99.90;;;;;;5044222;28;20039;-65
2022/10/10 08:32:10;;;;;;;64.35;24.98;;;10.90;99.90;;;;;;5042088;28;20040;-66
2022/10/10 08:34:36;;;;;;;69.25;25.55;;;11.10;99.90;;;;;;5040760;28;20120;-65
2022/10/10 08:37:02;;;;;;;71.38;26.70;;;11.10;99.90;;;;;;5050355;28;20036;-66
2022/10/10 08:39:27;;;;;;;70.88;25.42;;;11.20;99.90;;;;;;5048925;28;20033;-65
2022/10/10 08:41:59;;;;;;;81.22;25.90;;;11.30;99.90;;;;;;5048490;28;20063;-64
2022/10/10 08:44:47;;;;;;;69.72;26.17;;;11.40;99.90;;;;;;5049357;28;20055;-64
2022/10/10 08:47:23;;;;;;;73.25;25.67;;;11.50;99.90;;;;;;5041530;28;20052;-64
2022/10/10 08:49:51;;;;;;;70.28;25.27;;;11.50;99.90;;;;;;5041725;28;20144;-66
2022/10/10 08:52:32;;;;;;;63.88;24.05;;;11.60;99.90;;;;;;5045924;28;20045;-66
2022/10/10 08:55:01;;;;;;;70.97;25.77;;;11.60;99.90;;;;;;5050033;28;20052;-64
2022/10/10 08:57:32;;;;;;;59.33;25.58;;;11.70;99.90;;;;;;5040142;28;20116;-66
2022/10/10 09:00:05;;;;;;;63.58;24.23;;;11.80;99.90;;;;;;5041904;28;20484;-64
2022/10/10 09:02:36;;;;;;;;;;;11.80;99.90;;;;;;5043284;28;20048;-65
2022/10/10 09:05:02;;;;;;;59.58;22.80;;;11.90;99.90;;;;;;5047760;28;19925;-65
2022/10/10 09:07:43;;;;;;;57.10;23.13;;;11.90;99.90;;;;;;5048582;28;20112;-65
2022/10/10 09:10:19;;;;;;;54.35;23.25;;;11.90;99.90;;;;;;5072042;28;20032;-66
2022/10/10 09:12:52;;;;;;;64.68;23.35;;;11.90;99.90;;;;;;5047093;28;20408;-64
2022/10/10 09:15:25;;;;;;;52.63;22.30;;;12.10;99.90;;;;;;5052251;28;20040;-66
2022/10/10 09:18:14;;;;;;;51.20;22.23;;;12.20;99.90;;;;;;5039015;28;20036;-65
2022/10/10 09:21:11;;;;;;;45.85;20.42;;;12.40;99.90;;;;;;5044135;28;20033;-66
2022/10/10 09:23:45;;;;;;;49.08;20.67;;;12.60;99.90;;;;;;5077330;28;20060;-65
2022/10/10 09:26:12;;;;;;;46.38;19.65;;;12.70;99.90;;;;;;5029212;28;20390;-67
2022/10/10 09:28:48;;;;;;;46.40;20.27;;;12.90;99.90;;;;;;5062881;28;20207;-65
2022/10/10 09:31:31;;;;;;;43.13;18.65;;;13.00;99.90;;;;;;5041344;28;20499;-65
2022/10/10 09:34:04;;;;;;;43.70;18.27;;;13.00;99.90;;;;;;5048493;28;20045;-66
2022/10/10 09:36:34;;;;;;;39.15;18.25;;;13.10;99.90;;;;;;5044106;28;20068;-65
2022/10/10 09:39:05;;;;;;;39.47;17.65;;;13.20;99.90;;;;;;5048438;28;20112;-66
2022/10/10 09:41:44;;;;;;;40.17;18.45;;;13.30;99.90;;;;;;5052815;28;20040;-66
2022/10/10 09:44:12;;;;;;;41.75;18.92;;;13.50;99.90;;;;;;5042195;28;20476;-65
2022/10/10 09:46:37;;;;;;;36.92;16.75;;;13.50;99.90;;;;;;5048928;28;20049;-66
2022/10/10 09:49:04;;;;;;;32.50;17.42;;;13.50;99.90;;;;;;5049236;28;20053;-63
2022/10/10 09:51:31;;;;;;;38.95;17.02;;;13.50;99.90;;;;;;5048740;28;20052;-66
2022/10/10 09:53:57;;;;;;;32.42;16.05;;;13.60;99.90;;;;;;5047219;28;20096;-65
2022/10/10 09:56:30;;;;;;;35.50;16.80;;;13.60;99.90;;;;;;5048648;28;20044;-65
2022/10/10 09:58:56;;;;;;;33.33;16.40;;;13.60;99.90;;;;;;5030921;28;20120;-64
2022/10/10 10:01:31;;;;;;;34.17;16.00;;;13.60;99.90;;;;;;5031030;28;20143;-65
2022/10/10 10:04:02;;;;;;;41.38;16.02;;;13.70;99.90;;;;;;5040705;28;20045;-65
2022/10/10 10:06:29;;;;;;;36.00;15.98;;;13.70;99.90;;;;;;5043724;28;20041;-64
2022/10/10 10:09:00;;;;;;;33.22;16.70;;;13.70;99.90;;;;;;5048230;28;20399;-63
2022/10/10 10:11:40;;;;;;;32.63;16.48;;;13.70;99.90;;;;;;5044182;28;20443;-66
2022/10/10 10:14:12;;;;;;;34.42;15.38;;;13.70;99.90;;;;;;5036105;28;20037;-66
2022/10/10 10:16:39;;;;;;;30.52;15.57;;;13.70;99.90;;;;;;5051673;28;20087;-65
2022/10/10 10:19:08;;;;;;;33.05;15.30;;;13.80;99.90;;;;;;5052408;28;20033;-65
2022/10/10 10:21:48;;;;;;;32.33;15.52;;;13.90;99.90;;;;;;5052159;28;20045;-65
2022/10/10 10:24:27;;;;;;;32.88;15.63;;;14.00;99.90;;;;;;5056720;28;20044;-65
2022/10/10 10:26:53;;;;;;;33.00;15.50;;;14.10;99.90;;;;;;5050622;28;20052;-64
2022/10/10 10:29:29;;;;;;;33.78;16.33;;;14.20;99.90;;;;;;5050043;28;20041;-63
2022/10/10 10:32:13;;;;;;;28.08;14.32;;;14.40;99.90;;;;;;5052170;28;20045;-65
2022/10/10 10:34:43;;;;;;;31.20;14.63;;;14.50;99.90;;;;;;5052877;28;20057;-64
2022/10/10 10:37:20;;;;;;;33.00;15.60;;;14.50;99.90;;;;;;5051577;28;20045;-64
2022/10/10 10:40:01;;;;;;;31.75;15.10;;;14.50;99.90;;;;;;5051258;28;20032;-65
2022/10/10 10:42:29;;;;;;;27.70;14.75;;;14.40;99.90;;;;;;5051250;28;20066;-65
2022/10/10 10:45:13;;;;;;;30.10;14.38;;;14.40;99.90;;;;;;5049832;28;20484;-65
2022/10/10 10:47:39;;;;;;;30.80;15.38;;;14.30;99.90;;;;;;5032570;28;20073;-65
2022/10/10 10:50:32;;;;;;;30.50;14.52;;;14.20;99.90;;;;;;5051426;28;20079;-64
2022/10/10 10:53:17;;;;;;;29.10;14.05;;;14.20;99.90;;;;;;5049307;28;20251;-65
2022/10/10 10:55:57;;;;;;;31.50;14.07;;;14.20;99.90;;;;;;5043023;28;20535;-65
2022/10/10 10:58:39;;;;;;;28.60;14.40;;;14.20;99.90;;;;;;5077818;28;20063;-66
2022/10/10 11:01:15;;;;;;;27.00;13.68;;;14.20;99.90;;;;;;5047495;28;20048;-66
2022/10/10 11:03:46;;;;;;;30.20;14.15;;;14.30;99.90;;;;;;5050847;28;20400;-64
2022/10/10 11:06:15;;;;;;;29.30;14.85;;;14.30;99.90;;;;;;5052186;28;20400;-65
2022/10/10 11:09:02;;;;;;;26.15;14.60;;;14.40;99.90;;;;;;5049913;28;20049;-66
2022/10/10 11:11:30;;;;;;;26.13;14.32;;;14.40;99.90;;;;;;5049045;28;20045;-65
2022/10/10 11:14:15;;;;;;;31.75;14.52;;;14.50;99.90;;;;;;5031949;28;20049;-66
2022/10/10 11:16:47;;;;;;;29.58;14.48;;;14.60;99.90;;;;;;5050982;28;20324;-66
2022/10/10 11:19:13;;;;;;;31.30;14.93;;;14.60;99.90;;;;;;5037855;28;20064;-65
2022/10/10 11:22:01;;;;;;;33.78;14.80;;;14.60;99.90;;;;;;5050666;28;20551;-66
2022/10/10 11:24:50;;;;;;;29.52;14.15;;;14.60;99.90;;;;;;5050571;28;20399;-65
2022/10/10 11:27:27;;;;;;;33.63;14.43;;;14.50;99.90;;;;;;5045818;28;20078;-65
2022/10/10 11:30:07;;;;;;;26.27;13.77;;;14.40;99.90;;;;;;5036117;28;20045;-65
2022/10/10 11:32:51;;;;;;;28.88;14.88;;;14.30;99.90;;;;;;5035088;28;20095;-65
2022/10/10 11:35:33;;;;;;;27.10;14.07;;;14.20;99.90;;;;;;5076122;28;20539;-63
2022/10/10 11:38:36;;;;;;;29.80;14.38;;;14.20;99.90;;;;;;5040001;28;20045;-65
2022/10/10 11:41:08;;;;;;;;;;;14.10;99.90;;;;;;5009579;28;20500;-63
2022/10/10 11:43:39;;;;;;;30.90;13.80;;;14.20;99.90;;;;;;5049766;28;19986;-64
2022/10/10 11:46:19;;;;;;;28.50;15.10;;;14.20;99.90;;;;;;5043639;28;20037;-65
2022/10/10 11:49:16;;;;;;;25.60;14.23;;;14.20;99.90;;;;;;5040305;28;20041;-65
2022/10/10 11:52:16;;;;;;;28.45;14.15;;;14.20;99.90;;;;;;5022547;28;20044;-66
2022/10/10 11:54:49;;;;;;;28.63;13.75;;;14.20;99.90;;;;;;5042268;28;20116;-66
2022/10/10 11:57:32;;;;;;;32.67;15.90;;;14.20;99.90;;;;;;5044126;28;20091;-66
2022/10/10 12:00:05;;;;;;;31.77;14.85;;;14.20;99.90;;;;;;5038456;28;20041;-66
2022/10/10 12:02:39;;;;;;;33.88;16.05;;;14.30;99.90;;;;;;5037682;28;20040;-69
2022/10/10 12:05:06;;;;;;;36.85;16.40;;;14.30;99.90;;;;;;5039688;28;20033;-67
2022/10/10 12:07:39;;;;;;;34.45;15.60;;;14.30;99.90;;;;;;5072545;28;20496;-66
2022/10/10 12:10:12;;;;;;;32.15;15.02;;;14.30;99.90;;;;;;5039271;28;20550;-66
2022/10/10 12:12:46;;;;;;;37.33;15.90;;;14.30;99.90;;;;;;5039007;28;20076;-66
2022/10/10 12:15:28;;;;;;;36.95;16.15;;;14.30;99.90;;;;;;5069769;28;20477;-65
2022/10/10 12:17:55;;;;;;;34.33;15.35;;;14.30;99.90;;;;;;5037062;28;20115;-67
2022/10/10 12:20:24;;;;;;;34.20;16.35;;;14.30;99.90;;;;;;5040179;28;20059;-65
2022/10/10 12:23:13;;;;;;;48.15;16.67;;;14.30;99.90;;;;;;5036814;28;20049;-65
2022/10/10 12:25:45;;;;;;;40.47;17.75;;;14.30;99.90;;;;;;5043165;28;20688;-65
2022/10/10 12:28:13;;;;;;;37.67;17.42;;;14.30;99.90;;;;;;5073326;28;20044;-65
2022/10/10 12:30:51;;;;;;;39.78;18.20;;;14.20;99.90;;;;;;5037807;28;20052;-66
2022/10/10 12:33:24;;;;;;;46.42;17.92;;;14.00;99.90;;;;;;5036837;28;20041;-66
2022/10/10 12:35:50;;;;;;;42.40;19.02;;;14.10;99.90;;;;;;5038548;28;20040;-64
2022/10/10 12:38:29;;;;;;;41.25;18.42;;;14.00;99.90;;;;;;5037255;28;20033;-64
2022/10/10 12:41:15;;;;;;;38.20;18.52;;;13.90;99.90;;;;;;5042616;28;20037;-66
2022/10/10 12:43:49;;;;;;;41.45;18.48;;;13.90;99.90;;;;;;5035626;28;20059;-66
2022/10/10 12:46:25;;;;;;;40.53;18.92;;;13.90;99.90;;;;;;5041319;28;20098;-66
2022/10/10 12:48:58;;;;;;;37.85;19.10;;;13.90;99.90;;;;;;5036951;28;20052;-65